createdAt,value
2019-03-24T00:00:36.397Z,0.00
2019-03-24T00:01:41.023Z,0.00
2019-03-24T00:02:37.360Z,0.00
2019-03-24T00:03:36.358Z,0.00
2019-03-24T00:04:36.347Z,0.00
2019-03-24T00:05:36.352Z,0.00
2019-03-24T00:06:36.336Z,0.00
2019-03-24T00:07:36.317Z,0.00
2019-03-24T00:08:36.298Z,0.00
2019-03-24T00:09:36.297Z,0.00
2019-03-24T00:10:36.274Z,0.00
2019-03-24T00:11:36.313Z,0.00
2019-03-24T00:12:36.256Z,0.00
2019-03-24T00:13:36.251Z,0.00
2019-03-24T00:14:36.232Z,0.00
2019-03-24T00:15:36.227Z,0.00
2019-03-24T00:16:36.258Z,0.00
2019-03-24T00:17:36.218Z,0.00
2019-03-24T00:18:36.192Z,0.00
2019-03-24T00:19:36.190Z,0.00
2019-03-24T00:20:36.184Z,0.00
2019-03-24T00:21:36.162Z,0.00
2019-03-24T00:22:36.164Z,0.00
2019-03-24T00:23:36.140Z,0.00
2019-03-24T00:24:36.127Z,0.00
2019-03-24T00:25:36.118Z,0.00
2019-03-24T00:26:36.115Z,0.00
2019-03-24T00:27:36.117Z,0.00
2019-03-24T00:28:36.083Z,0.00
2019-03-24T00:29:36.070Z,0.00
2019-03-24T00:30:36.072Z,0.00
2019-03-24T00:31:36.051Z,0.00
2019-03-24T00:32:36.083Z,0.00
2019-03-24T00:33:36.040Z,0.00
2019-03-24T00:34:36.017Z,0.00
2019-03-24T00:35:36.013Z,0.00
2019-03-24T00:36:36.001Z,0.00
2019-03-24T00:37:36.006Z,0.00
2019-03-24T00:38:36.026Z,0.00
2019-03-24T00:39:35.965Z,0.00
2019-03-24T00:40:35.961Z,0.00
2019-03-24T00:41:35.945Z,0.00
2019-03-24T00:42:35.951Z,0.00
2019-03-24T00:43:35.923Z,0.00
2019-03-24T00:44:35.942Z,0.00
2019-03-24T00:45:37.110Z,0.00
2019-03-24T00:46:35.893Z,0.00
2019-03-24T00:47:35.925Z,0.00
2019-03-24T00:48:35.875Z,0.00
2019-03-24T00:49:35.863Z,0.00
2019-03-24T00:50:35.871Z,0.00
2019-03-24T00:51:35.843Z,0.00
2019-03-24T00:52:35.831Z,0.00
2019-03-24T00:53:35.831Z,0.00
2019-03-24T00:54:35.817Z,0.00
2019-03-24T00:55:35.797Z,0.00
2019-03-24T00:56:35.793Z,0.00
2019-03-24T00:57:37.540Z,0.00
2019-03-24T00:58:35.842Z,0.00
2019-03-24T00:59:35.756Z,0.00
2019-03-24T01:00:35.785Z,0.00
2019-03-24T01:01:35.733Z,0.00
2019-03-24T01:02:35.725Z,0.00
2019-03-24T01:03:35.763Z,0.00
2019-03-24T01:04:35.703Z,0.00
2019-03-24T01:05:35.691Z,0.00
2019-03-24T01:06:35.683Z,0.00
2019-03-24T01:07:35.674Z,0.00
2019-03-24T01:08:35.705Z,0.00
2019-03-24T01:09:35.649Z,0.00
2019-03-24T01:10:35.634Z,0.00
2019-03-24T01:11:35.626Z,0.00
2019-03-24T01:12:35.618Z,0.00
2019-03-24T01:13:35.628Z,0.00
2019-03-24T01:14:35.634Z,0.00
2019-03-24T01:15:35.586Z,0.00
2019-03-24T01:16:35.574Z,0.00
2019-03-24T01:17:35.562Z,0.00
2019-03-24T01:18:35.567Z,0.00
2019-03-24T01:19:35.546Z,0.00
2019-03-24T01:20:35.545Z,0.00
2019-03-24T01:21:35.539Z,0.00
2019-03-24T01:22:35.536Z,0.00
2019-03-24T01:23:35.519Z,0.00
2019-03-24T01:24:35.528Z,0.00
2019-03-24T01:25:35.480Z,0.00
2019-03-24T01:26:35.464Z,0.00
2019-03-24T01:27:35.468Z,0.00
2019-03-24T01:28:35.479Z,0.00
2019-03-24T01:29:35.454Z,0.00
2019-03-24T01:30:35.425Z,0.00
2019-03-24T01:31:35.420Z,0.00
2019-03-24T01:32:35.404Z,0.00
2019-03-24T01:33:35.411Z,0.00
2019-03-24T01:34:35.422Z,0.00
2019-03-24T01:35:35.374Z,0.00
2019-03-24T01:36:35.360Z,0.00
2019-03-24T01:37:35.356Z,0.00
2019-03-24T01:38:35.366Z,0.00
2019-03-24T01:39:35.328Z,0.00
2019-03-24T01:40:35.326Z,0.00
2019-03-24T01:41:35.310Z,0.00
2019-03-24T01:42:35.295Z,0.00
2019-03-24T01:43:35.288Z,0.00
2019-03-24T01:44:35.289Z,0.00
2019-03-24T01:45:35.263Z,0.00
2019-03-24T01:46:35.291Z,0.00
2019-03-24T01:47:35.250Z,0.00
2019-03-24T01:48:35.240Z,0.00
2019-03-24T01:49:35.243Z,0.00
2019-03-24T01:50:35.215Z,0.00
2019-03-24T01:51:35.204Z,0.00
2019-03-24T01:52:35.214Z,0.00
2019-03-24T01:53:35.183Z,0.00
2019-03-24T01:54:35.186Z,0.00
2019-03-24T01:55:35.162Z,0.00
2019-03-24T01:56:35.155Z,0.00
2019-03-24T01:57:35.133Z,0.00
2019-03-24T01:58:35.131Z,0.00
2019-03-24T01:59:35.128Z,0.00
2019-03-24T02:00:35.109Z,0.00
2019-03-24T02:01:35.093Z,0.00
2019-03-24T02:02:35.090Z,0.00
2019-03-24T02:03:35.071Z,0.00
2019-03-24T02:04:35.091Z,0.00
2019-03-24T02:05:35.053Z,0.00
2019-03-24T02:06:35.043Z,0.00
2019-03-24T02:07:35.039Z,0.00
2019-03-24T02:08:35.064Z,0.00
2019-03-24T02:09:35.039Z,0.00
2019-03-24T02:10:35.019Z,0.00
2019-03-24T02:11:34.989Z,0.00
2019-03-24T02:12:34.981Z,0.00
2019-03-24T02:13:34.965Z,0.00
2019-03-24T02:14:34.953Z,0.00
2019-03-24T02:15:34.968Z,0.00
2019-03-24T02:16:34.959Z,0.00
2019-03-24T02:17:34.929Z,0.00
2019-03-24T02:18:34.922Z,0.00
2019-03-24T02:19:34.905Z,0.00
2019-03-24T02:20:34.910Z,0.00
2019-03-24T02:21:34.885Z,0.00
2019-03-24T02:22:34.871Z,0.00
2019-03-24T02:23:34.877Z,0.00
2019-03-24T02:24:34.873Z,0.00
2019-03-24T02:25:34.861Z,0.00
2019-03-24T02:26:34.830Z,0.00
2019-03-24T02:27:34.817Z,0.00
2019-03-24T02:28:34.809Z,0.00
2019-03-24T02:29:34.804Z,0.00
2019-03-24T02:30:34.807Z,0.00
2019-03-24T02:31:34.774Z,0.00
2019-03-24T02:32:34.783Z,0.00
2019-03-24T02:33:34.757Z,0.00
2019-03-24T02:34:34.754Z,0.00
2019-03-24T02:35:34.839Z,0.00
2019-03-24T02:36:34.723Z,0.00
2019-03-24T02:37:34.712Z,0.00
2019-03-24T02:38:34.758Z,0.00
2019-03-24T02:39:34.693Z,0.00
2019-03-24T02:40:34.694Z,0.00
2019-03-24T02:41:34.672Z,0.00
2019-03-24T02:42:34.664Z,0.00
2019-03-24T02:43:34.646Z,0.00
2019-03-24T02:44:34.638Z,0.00
2019-03-24T02:45:34.708Z,0.00
2019-03-24T02:46:34.629Z,0.00
2019-03-24T02:47:34.607Z,0.00
2019-03-24T02:48:34.604Z,0.00
2019-03-24T02:49:34.584Z,0.00
2019-03-24T02:50:34.571Z,0.00
2019-03-24T02:51:34.579Z,0.00
2019-03-24T02:52:34.561Z,0.00
2019-03-24T02:53:34.550Z,0.00
2019-03-24T02:54:34.532Z,0.00
2019-03-24T02:55:34.524Z,0.00
2019-03-24T02:56:34.543Z,0.00
2019-03-24T02:57:34.497Z,0.00
2019-03-24T02:58:34.499Z,0.00
2019-03-24T02:59:34.480Z,0.00
2019-03-24T03:00:34.538Z,0.00
2019-03-24T03:01:34.458Z,0.00
2019-03-24T03:02:34.474Z,0.00
2019-03-24T03:03:34.435Z,0.00
2019-03-24T03:04:34.429Z,0.00
2019-03-24T03:05:34.425Z,0.00
2019-03-24T03:06:34.412Z,0.00
2019-03-24T03:07:34.421Z,0.00
2019-03-24T03:08:34.410Z,0.00
2019-03-24T03:09:34.381Z,0.00
2019-03-24T03:10:34.368Z,0.00
2019-03-24T03:11:34.349Z,0.00
2019-03-24T03:12:34.350Z,0.00
2019-03-24T03:13:34.346Z,0.00
2019-03-24T03:14:34.325Z,0.00
2019-03-24T03:15:34.304Z,0.00
2019-03-24T03:16:38.839Z,0.00
2019-03-24T03:17:35.290Z,0.00
2019-03-24T03:18:34.294Z,0.00
2019-03-24T03:19:34.264Z,0.00
2019-03-24T03:20:34.254Z,0.00
2019-03-24T03:21:34.251Z,0.00
2019-03-24T03:22:34.243Z,0.00
2019-03-24T03:23:34.255Z,0.00
2019-03-24T03:24:34.212Z,0.00
2019-03-24T03:25:34.215Z,0.00
2019-03-24T03:26:34.203Z,0.00
2019-03-24T03:27:34.194Z,0.00
2019-03-24T03:28:34.187Z,0.00
2019-03-24T03:29:34.170Z,0.00
2019-03-24T03:30:34.202Z,0.00
2019-03-24T03:31:34.142Z,0.00
2019-03-24T03:32:34.131Z,0.00
2019-03-24T03:33:34.146Z,0.00
2019-03-24T03:34:34.120Z,0.00
2019-03-24T03:35:34.105Z,0.00
2019-03-24T03:36:34.094Z,0.00
2019-03-24T03:37:34.091Z,0.00
2019-03-24T03:38:34.103Z,0.00
2019-03-24T03:39:34.061Z,0.00
2019-03-24T03:40:34.069Z,0.00
2019-03-24T03:41:34.040Z,0.00
2019-03-24T03:42:34.020Z,0.00
2019-03-24T03:43:34.086Z,0.00
2019-03-24T03:44:34.006Z,0.00
2019-03-24T03:45:33.989Z,0.00
2019-03-24T03:46:33.984Z,0.00
2019-03-24T03:47:33.991Z,0.00
2019-03-24T03:48:33.963Z,0.00
2019-03-24T03:49:33.972Z,0.00
2019-03-24T03:50:33.945Z,0.00
2019-03-24T03:51:33.924Z,0.00
2019-03-24T03:52:33.914Z,0.00
2019-03-24T03:53:33.903Z,0.00
2019-03-24T03:54:33.912Z,0.00
2019-03-24T03:55:33.887Z,0.00
2019-03-24T03:56:33.932Z,0.00
2019-03-24T03:57:33.865Z,0.00
2019-03-24T03:58:33.854Z,0.00
2019-03-24T03:59:33.862Z,0.00
2019-03-24T04:00:33.830Z,0.00
2019-03-24T04:01:33.817Z,0.00
2019-03-24T04:02:33.808Z,0.00
2019-03-24T04:03:33.807Z,0.00
2019-03-24T04:04:33.807Z,0.00
2019-03-24T04:05:33.834Z,0.00
2019-03-24T04:06:33.788Z,0.00
2019-03-24T04:07:33.806Z,0.00
2019-03-24T04:08:33.745Z,0.00
2019-03-24T04:09:33.760Z,0.00
2019-03-24T04:10:33.728Z,0.00
2019-03-24T04:11:33.715Z,0.00
2019-03-24T04:12:33.748Z,0.00
2019-03-24T04:13:33.692Z,0.00
2019-03-24T04:14:33.710Z,0.00
2019-03-24T04:15:33.681Z,0.00
2019-03-24T04:16:33.665Z,0.00
2019-03-24T04:17:33.652Z,0.00
2019-03-24T04:18:33.641Z,0.00
2019-03-24T04:19:33.650Z,0.00
2019-03-24T04:20:33.688Z,0.00
2019-03-24T04:21:33.613Z,0.00
2019-03-24T04:22:33.601Z,0.00
2019-03-24T04:23:33.583Z,0.00
2019-03-24T04:24:33.609Z,0.00
2019-03-24T04:25:33.579Z,0.00
2019-03-24T04:26:33.646Z,0.00
2019-03-24T04:27:33.545Z,0.00
2019-03-24T04:28:33.548Z,0.00
2019-03-24T04:29:33.537Z,0.00
2019-03-24T04:30:33.516Z,0.00
2019-03-24T04:31:33.503Z,0.00
2019-03-24T04:32:33.529Z,0.00
2019-03-24T04:33:33.476Z,0.00
2019-03-24T04:34:33.490Z,0.00
2019-03-24T04:35:33.458Z,0.00
2019-03-24T04:36:33.496Z,0.00
2019-03-24T04:37:33.472Z,0.00
2019-03-24T04:38:33.456Z,0.00
2019-03-24T04:39:33.422Z,0.00
2019-03-24T04:40:33.424Z,0.00
2019-03-24T04:41:33.394Z,0.00
2019-03-24T04:42:33.392Z,0.00
2019-03-24T04:43:33.376Z,0.00
2019-03-24T04:44:33.369Z,0.00
2019-03-24T04:45:33.415Z,0.00
2019-03-24T04:46:33.347Z,0.00
2019-03-24T04:47:33.336Z,0.00
2019-03-24T04:48:33.323Z,0.00
2019-03-24T04:49:33.312Z,0.00
2019-03-24T04:50:33.313Z,5.62
2019-03-24T04:51:33.333Z,5.62
2019-03-24T04:52:33.293Z,5.62
2019-03-24T04:53:33.267Z,5.62
2019-03-24T04:54:33.263Z,11.25
2019-03-24T04:55:33.267Z,11.25
2019-03-24T04:56:33.236Z,11.25
2019-03-24T04:57:33.231Z,11.25
2019-03-24T04:58:33.241Z,11.25
2019-03-24T04:59:33.211Z,11.25
2019-03-24T05:00:33.215Z,16.88
2019-03-24T05:01:33.189Z,16.88
2019-03-24T05:02:33.182Z,16.88
2019-03-24T05:03:33.165Z,22.50
2019-03-24T05:04:33.158Z,22.50
2019-03-24T05:05:33.194Z,22.50
2019-03-24T05:06:33.135Z,28.12
2019-03-24T05:07:33.123Z,28.12
2019-03-24T05:08:33.109Z,33.75
2019-03-24T05:09:33.099Z,33.75
2019-03-24T05:10:33.101Z,39.38
2019-03-24T05:11:33.132Z,39.38
2019-03-24T05:12:33.071Z,45.00
2019-03-24T05:13:33.061Z,50.62
2019-03-24T05:14:33.056Z,50.62
2019-03-24T05:15:33.075Z,56.25
2019-03-24T05:16:33.029Z,56.25
2019-03-24T05:17:33.017Z,61.88
2019-03-24T05:18:33.003Z,67.50
2019-03-24T05:19:33.044Z,67.50
2019-03-24T05:20:32.987Z,73.12
2019-03-24T05:21:32.989Z,78.75
2019-03-24T05:22:32.962Z,78.75
2019-03-24T05:23:32.959Z,84.38
2019-03-24T05:24:32.943Z,90.00
2019-03-24T05:25:32.986Z,90.00
2019-03-24T05:26:32.940Z,95.62
2019-03-24T05:27:32.909Z,101.25
2019-03-24T05:28:32.901Z,101.25
2019-03-24T05:29:32.897Z,106.88
2019-03-24T05:30:32.879Z,112.50
2019-03-24T05:31:32.885Z,112.50
2019-03-24T05:32:32.893Z,112.50
2019-03-24T05:33:32.845Z,118.12
2019-03-24T05:34:32.839Z,123.75
2019-03-24T05:35:32.832Z,129.38
2019-03-24T05:36:32.838Z,135.00
2019-03-24T05:37:32.815Z,140.62
2019-03-24T05:38:32.798Z,151.88
2019-03-24T05:39:32.789Z,157.50
2019-03-24T05:40:32.776Z,163.12
2019-03-24T05:41:32.840Z,168.75
2019-03-24T05:42:32.758Z,174.38
2019-03-24T05:43:32.746Z,180.00
2019-03-24T05:44:32.732Z,185.62
2019-03-24T05:45:32.719Z,185.62
2019-03-24T05:46:32.736Z,191.25
2019-03-24T05:47:37.018Z,196.88
2019-03-24T05:48:32.720Z,202.50
2019-03-24T05:49:32.682Z,202.50
2019-03-24T05:50:32.672Z,208.12
2019-03-24T05:51:32.705Z,208.12
2019-03-24T05:52:32.650Z,213.75
2019-03-24T05:53:32.638Z,219.38
2019-03-24T05:54:32.643Z,225.00
2019-03-24T05:55:32.614Z,230.62
2019-03-24T05:56:32.616Z,236.25
2019-03-24T05:57:32.595Z,236.25
2019-03-24T05:58:32.580Z,236.25
2019-03-24T05:59:32.572Z,241.88
2019-03-24T06:00:32.563Z,236.25
2019-03-24T06:01:32.599Z,236.25
2019-03-24T06:02:32.538Z,236.25
2019-03-24T06:03:32.532Z,241.88
2019-03-24T06:04:32.524Z,258.75
2019-03-24T06:05:32.510Z,275.62
2019-03-24T06:06:32.504Z,292.50
2019-03-24T06:07:32.504Z,309.38
2019-03-24T06:08:32.516Z,326.25
2019-03-24T06:09:32.462Z,337.50
2019-03-24T06:10:32.458Z,354.38
2019-03-24T06:11:32.459Z,360.00
2019-03-24T06:12:32.454Z,382.50
2019-03-24T06:13:32.430Z,393.75
2019-03-24T06:14:32.416Z,393.75
2019-03-24T06:15:32.412Z,399.38
2019-03-24T06:16:32.464Z,405.00
2019-03-24T06:17:32.412Z,410.62
2019-03-24T06:18:32.376Z,421.88
2019-03-24T06:19:32.369Z,427.50
2019-03-24T06:20:32.346Z,433.12
2019-03-24T06:21:32.344Z,433.12
2019-03-24T06:22:32.343Z,433.12
2019-03-24T06:23:32.356Z,444.38
2019-03-24T06:24:32.307Z,438.75
2019-03-24T06:25:34.812Z,444.38
2019-03-24T06:26:32.303Z,455.62
2019-03-24T06:27:32.285Z,472.50
2019-03-24T06:28:32.259Z,489.38
2019-03-24T06:29:32.268Z,500.62
2019-03-24T06:30:32.241Z,534.38
2019-03-24T06:31:32.234Z,545.62
2019-03-24T06:32:32.237Z,579.38
2019-03-24T06:33:32.209Z,585.00
2019-03-24T06:34:32.197Z,601.88
2019-03-24T06:35:32.192Z,630.00
2019-03-24T06:36:32.250Z,630.00
2019-03-24T06:37:32.185Z,652.50
2019-03-24T06:38:32.155Z,652.50
2019-03-24T06:39:32.149Z,658.12
2019-03-24T06:40:32.132Z,641.25
2019-03-24T06:41:32.125Z,658.12
2019-03-24T06:42:32.149Z,652.50
2019-03-24T06:43:32.099Z,652.50
2019-03-24T06:44:32.095Z,663.75
2019-03-24T06:45:32.087Z,663.75
2019-03-24T06:46:32.077Z,663.75
2019-03-24T06:47:32.097Z,680.62
2019-03-24T06:48:32.049Z,691.88
2019-03-24T06:49:32.057Z,691.88
2019-03-24T06:50:32.031Z,703.12
2019-03-24T06:51:32.015Z,708.75
2019-03-24T06:52:32.003Z,725.62
2019-03-24T06:53:32.007Z,736.88
2019-03-24T06:54:31.980Z,736.88
2019-03-24T06:55:31.993Z,748.12
2019-03-24T06:56:31.963Z,753.75
2019-03-24T06:57:31.949Z,770.62
2019-03-24T06:58:32.148Z,776.25
2019-03-24T06:59:31.951Z,787.50
2019-03-24T07:00:31.922Z,781.88
2019-03-24T07:01:31.968Z,787.50
2019-03-24T07:02:31.894Z,776.25
2019-03-24T07:03:32.784Z,776.25
2019-03-24T07:04:32.186Z,753.75
2019-03-24T07:05:31.862Z,765.00
2019-03-24T07:06:31.858Z,765.00
2019-03-24T07:07:31.841Z,787.50
2019-03-24T07:08:31.849Z,793.12
2019-03-24T07:09:31.887Z,815.62
2019-03-24T07:10:31.836Z,838.12
2019-03-24T07:11:31.804Z,933.75
2019-03-24T07:12:31.790Z,922.50
2019-03-24T07:13:31.793Z,911.25
2019-03-24T07:14:31.770Z,956.25
2019-03-24T07:15:31.788Z,1113.75
2019-03-24T07:16:31.744Z,1018.12
2019-03-24T07:17:31.749Z,1051.88
2019-03-24T07:18:31.745Z,1029.38
2019-03-24T07:19:31.723Z,1040.62
2019-03-24T07:20:31.702Z,1147.50
2019-03-24T07:21:31.724Z,1338.75
2019-03-24T07:22:31.691Z,1130.62
2019-03-24T07:23:31.746Z,1108.12
2019-03-24T07:24:31.662Z,1175.62
2019-03-24T07:25:31.653Z,1119.38
2019-03-24T07:26:31.638Z,1215.00
2019-03-24T07:27:31.636Z,1147.50
2019-03-24T07:28:31.634Z,1125.00
2019-03-24T07:29:31.624Z,1226.25
2019-03-24T07:30:31.596Z,1395.00
2019-03-24T07:31:31.586Z,1293.75
2019-03-24T07:32:31.572Z,1282.50
2019-03-24T07:33:31.594Z,1226.25
2019-03-24T07:34:31.550Z,1237.50
2019-03-24T07:35:31.558Z,1395.00
2019-03-24T07:36:31.528Z,1215.00
2019-03-24T07:37:31.520Z,1693.12
2019-03-24T07:38:31.511Z,1366.88
2019-03-24T07:39:31.516Z,1738.12
2019-03-24T07:40:31.490Z,1625.62
2019-03-24T07:41:31.498Z,2205.00
2019-03-24T07:42:31.466Z,1625.62
2019-03-24T07:43:31.453Z,1440.00
2019-03-24T07:44:31.458Z,1361.25
2019-03-24T07:45:31.433Z,2621.25
2019-03-24T07:46:31.420Z,1569.38
2019-03-24T07:47:31.425Z,1890.00
2019-03-24T07:48:31.413Z,1901.25
2019-03-24T07:49:31.436Z,1282.50
2019-03-24T07:50:31.381Z,1760.62
2019-03-24T07:51:31.380Z,1243.12
2019-03-24T07:52:31.365Z,2334.38
2019-03-24T07:53:31.356Z,1456.88
2019-03-24T07:54:31.392Z,1434.38
2019-03-24T07:55:31.334Z,1603.12
2019-03-24T07:56:31.329Z,1485.00
2019-03-24T07:57:31.327Z,1496.25
2019-03-24T07:58:31.313Z,2340.00
2019-03-24T07:59:31.295Z,1496.25
2019-03-24T08:00:31.306Z,1507.50
2019-03-24T08:01:31.266Z,1552.50
2019-03-24T08:02:31.252Z,1777.50
2019-03-24T08:03:31.269Z,1440.00
2019-03-24T08:04:31.243Z,1417.50
2019-03-24T08:05:31.221Z,1389.38
2019-03-24T08:06:31.207Z,1338.75
2019-03-24T08:07:31.201Z,1507.50
2019-03-24T08:08:31.210Z,1991.25
2019-03-24T08:09:31.217Z,1473.75
2019-03-24T08:10:31.175Z,1546.88
2019-03-24T08:11:31.152Z,1372.50
2019-03-24T08:12:31.145Z,2829.38
2019-03-24T08:13:31.141Z,1513.12
2019-03-24T08:14:31.158Z,1327.50
2019-03-24T08:15:31.113Z,2930.62
2019-03-24T08:16:31.127Z,1608.75
2019-03-24T08:17:31.097Z,2891.25
2019-03-24T08:18:31.075Z,2671.88
2019-03-24T08:19:31.085Z,2525.62
2019-03-24T08:20:31.059Z,2340.00
2019-03-24T08:21:31.045Z,2098.12
2019-03-24T08:22:31.041Z,2328.75
2019-03-24T08:23:31.033Z,1783.12
2019-03-24T08:24:31.041Z,1957.50
2019-03-24T08:25:31.015Z,1648.12
2019-03-24T08:26:30.992Z,1676.25
2019-03-24T08:27:30.986Z,1282.50
2019-03-24T08:28:30.975Z,1321.88
2019-03-24T08:29:30.996Z,1186.88
2019-03-24T08:30:30.953Z,1085.62
2019-03-24T08:31:30.951Z,1800.00
2019-03-24T08:32:30.934Z,1209.38
2019-03-24T08:33:30.928Z,1147.50
2019-03-24T08:34:30.915Z,1147.50
2019-03-24T08:35:30.921Z,1732.50
2019-03-24T08:36:30.906Z,1091.25
2019-03-24T08:37:30.891Z,2171.25
2019-03-24T08:38:30.877Z,1125.00
2019-03-24T08:39:30.865Z,1130.62
2019-03-24T08:40:30.861Z,1468.12
2019-03-24T08:41:30.853Z,1816.88
2019-03-24T08:42:30.837Z,2098.12
2019-03-24T08:43:30.814Z,2058.75
2019-03-24T08:44:30.824Z,2160.00
2019-03-24T08:45:30.805Z,1546.88
2019-03-24T08:46:30.776Z,1096.88
2019-03-24T08:47:30.784Z,1096.88
2019-03-24T08:48:40.424Z,1147.50
2019-03-24T08:49:31.744Z,1400.62
2019-03-24T08:50:30.754Z,1738.12
2019-03-24T08:51:30.731Z,1305.00
2019-03-24T08:52:30.714Z,1248.75
2019-03-24T08:53:30.734Z,1265.62
2019-03-24T08:54:30.690Z,1209.38
2019-03-24T08:55:30.696Z,1198.12
2019-03-24T08:56:30.672Z,1271.25
2019-03-24T08:57:32.520Z,1490.62
2019-03-24T08:58:30.658Z,1215.00
2019-03-24T08:59:30.701Z,1209.38
2019-03-24T09:00:31.172Z,1147.50
2019-03-24T09:01:30.619Z,1113.75
2019-03-24T09:02:30.606Z,1096.88
2019-03-24T09:03:32.553Z,1170.00
2019-03-24T09:04:30.586Z,1198.12
2019-03-24T09:05:30.608Z,1681.88
2019-03-24T09:06:30.592Z,1108.12
2019-03-24T09:07:30.554Z,1057.50
2019-03-24T09:08:30.544Z,1080.00
2019-03-24T09:09:30.534Z,1260.00
2019-03-24T09:10:30.532Z,1620.00
2019-03-24T09:11:31.413Z,1096.88
2019-03-24T09:12:31.326Z,916.88
2019-03-24T09:13:30.492Z,1001.25
2019-03-24T09:14:30.479Z,1254.38
2019-03-24T09:15:30.485Z,916.88
2019-03-24T09:16:30.456Z,1507.50
2019-03-24T09:17:30.536Z,978.75
2019-03-24T09:18:30.452Z,804.38
2019-03-24T09:19:30.431Z,1783.12
2019-03-24T09:20:40.988Z,1614.38
2019-03-24T09:21:31.416Z,1580.62
2019-03-24T09:22:30.399Z,2362.50
2019-03-24T09:23:30.385Z,3110.62
2019-03-24T09:24:30.374Z,2401.88
2019-03-24T09:25:30.487Z,1890.00
2019-03-24T09:26:30.378Z,1440.00
2019-03-24T09:27:30.344Z,1591.88
2019-03-24T09:28:30.327Z,1355.62
2019-03-24T09:29:30.318Z,731.25
2019-03-24T09:30:30.327Z,838.12
2019-03-24T09:31:30.300Z,1884.38
2019-03-24T09:32:30.311Z,1918.12
2019-03-24T09:33:30.272Z,1130.62
2019-03-24T09:34:30.266Z,922.50
2019-03-24T09:35:30.265Z,1428.75
2019-03-24T09:36:30.239Z,978.75
2019-03-24T09:37:30.238Z,703.12
2019-03-24T09:38:30.219Z,1220.62
2019-03-24T09:39:30.241Z,2340.00
2019-03-24T09:40:30.222Z,1659.38
2019-03-24T09:41:30.189Z,821.25
2019-03-24T09:42:30.175Z,601.88
2019-03-24T09:43:30.166Z,590.62
2019-03-24T09:44:30.168Z,753.75
2019-03-24T09:45:30.155Z,1597.50
2019-03-24T09:46:30.210Z,3037.50
2019-03-24T09:47:30.266Z,1940.62
2019-03-24T09:48:30.111Z,1147.50
2019-03-24T09:49:30.102Z,1541.25
2019-03-24T09:50:30.092Z,2075.62
2019-03-24T09:51:30.304Z,2750.62
2019-03-24T09:52:30.070Z,2210.62
2019-03-24T09:53:30.118Z,2705.62
2019-03-24T09:54:30.046Z,2272.50
2019-03-24T09:55:30.043Z,1006.88
2019-03-24T09:56:30.053Z,686.25
2019-03-24T09:57:30.025Z,2295.00
2019-03-24T09:58:30.010Z,3211.88
2019-03-24T09:59:29.995Z,2401.88
2019-03-24T10:00:29.986Z,1395.00
2019-03-24T10:01:29.999Z,1783.12
2019-03-24T10:02:29.986Z,1563.75
2019-03-24T10:03:30.019Z,2649.38
2019-03-24T10:04:29.948Z,2486.25
2019-03-24T10:05:30.051Z,2531.25
2019-03-24T10:06:29.936Z,2430.00
2019-03-24T10:07:29.913Z,928.12
2019-03-24T10:08:30.118Z,1490.62
2019-03-24T10:09:29.888Z,1091.25
2019-03-24T10:10:38.006Z,1665.00
2019-03-24T10:11:29.936Z,1693.12
2019-03-24T10:12:29.854Z,1653.75
2019-03-24T10:13:29.852Z,1018.12
2019-03-24T10:14:29.836Z,1029.38
2019-03-24T10:15:30.037Z,1670.62
2019-03-24T10:16:29.833Z,956.25
2019-03-24T10:17:39.690Z,1231.88
2019-03-24T10:18:29.798Z,2272.50
2019-03-24T10:19:29.778Z,2655.00
2019-03-24T10:20:29.770Z,3448.12
2019-03-24T10:21:29.776Z,3161.25
2019-03-24T10:22:29.758Z,3048.75
2019-03-24T10:23:29.742Z,3341.25
2019-03-24T10:24:29.738Z,2593.12
2019-03-24T10:25:29.719Z,2851.88
2019-03-24T10:26:29.722Z,1293.75
2019-03-24T10:27:29.720Z,3695.62
2019-03-24T10:28:29.688Z,3116.25
2019-03-24T10:29:29.685Z,961.88
2019-03-24T10:30:29.666Z,950.62
2019-03-24T10:31:29.681Z,967.50
2019-03-24T10:32:29.660Z,967.50
2019-03-24T10:33:29.684Z,922.50
2019-03-24T10:34:29.627Z,1423.12
2019-03-24T10:35:29.614Z,1344.38
2019-03-24T10:36:29.630Z,826.88
2019-03-24T10:37:29.595Z,781.88
2019-03-24T10:38:29.587Z,748.12
2019-03-24T10:39:31.838Z,736.88
2019-03-24T10:40:29.560Z,765.00
2019-03-24T10:41:29.571Z,815.62
2019-03-24T10:42:29.549Z,860.62
2019-03-24T10:43:29.533Z,1591.88
2019-03-24T10:44:29.521Z,2002.50
2019-03-24T10:45:29.520Z,2295.00
2019-03-24T10:46:29.510Z,2047.50
2019-03-24T10:47:29.497Z,2379.38
2019-03-24T10:48:33.628Z,2998.12
2019-03-24T10:49:29.463Z,1366.88
2019-03-24T10:50:29.468Z,2441.25
2019-03-24T10:51:29.471Z,2362.50
2019-03-24T10:52:29.430Z,2351.25
2019-03-24T10:53:29.421Z,1794.38
2019-03-24T10:54:29.419Z,1524.38
2019-03-24T10:55:29.397Z,1951.88
2019-03-24T10:56:29.420Z,2801.25
2019-03-24T10:57:29.373Z,2739.38
2019-03-24T10:58:29.369Z,3251.25
2019-03-24T10:59:29.367Z,3521.25
2019-03-24T11:00:29.345Z,3673.12
2019-03-24T11:01:29.343Z,4505.62
2019-03-24T11:02:29.345Z,4061.25
2019-03-24T11:03:29.309Z,3352.50
2019-03-24T11:04:29.322Z,2520.00
2019-03-24T11:05:29.291Z,2075.62
2019-03-24T11:06:29.274Z,2975.62
2019-03-24T11:07:29.286Z,2328.75
2019-03-24T11:08:29.259Z,2632.50
2019-03-24T11:09:29.302Z,2880.00
2019-03-24T11:10:29.239Z,1867.50
2019-03-24T11:11:29.230Z,894.38
2019-03-24T11:12:29.231Z,1080.00
2019-03-24T11:13:29.213Z,2559.38
2019-03-24T11:14:29.206Z,2610.00
2019-03-24T11:15:29.188Z,2913.75
2019-03-24T11:16:29.173Z,3279.38
2019-03-24T11:17:29.209Z,3633.75
2019-03-24T11:18:29.179Z,3864.38
2019-03-24T11:19:35.747Z,3993.75
2019-03-24T11:20:30.154Z,4601.25
2019-03-24T11:21:29.121Z,4455.00
2019-03-24T11:22:29.129Z,4038.75
2019-03-24T11:23:29.107Z,4809.38
2019-03-24T11:24:29.099Z,4477.50
2019-03-24T11:25:29.085Z,5551.88
2019-03-24T11:26:29.076Z,3645.00
2019-03-24T11:27:29.070Z,3397.50
2019-03-24T11:28:29.056Z,2891.25
2019-03-24T11:29:29.048Z,2458.12
2019-03-24T11:30:29.027Z,2778.75
2019-03-24T11:31:29.020Z,2941.88
2019-03-24T11:32:29.031Z,3313.12
2019-03-24T11:33:29.712Z,3763.12
2019-03-24T11:34:28.997Z,4038.75
2019-03-24T11:35:28.981Z,2491.88
2019-03-24T11:36:28.974Z,3363.75
2019-03-24T11:37:28.968Z,3296.25
2019-03-24T11:38:28.953Z,2531.25
2019-03-24T11:39:28.954Z,2300.62
2019-03-24T11:40:28.932Z,3189.38
2019-03-24T11:41:28.934Z,3577.50
2019-03-24T11:42:28.926Z,2480.62
2019-03-24T11:43:28.901Z,2250.00
2019-03-24T11:44:28.901Z,3425.62
2019-03-24T11:45:28.878Z,3313.12
2019-03-24T11:46:28.860Z,1726.88
2019-03-24T11:47:28.890Z,1805.62
2019-03-24T11:48:28.838Z,2773.12
2019-03-24T11:49:28.830Z,2835.00
2019-03-24T11:50:28.820Z,1665.00
2019-03-24T11:51:28.810Z,2863.12
2019-03-24T11:52:28.836Z,3751.88
2019-03-24T11:53:28.788Z,4393.12
2019-03-24T11:54:28.779Z,1940.62
2019-03-24T11:55:28.772Z,4230.00
2019-03-24T11:56:28.760Z,2936.25
2019-03-24T11:57:28.755Z,3678.75
2019-03-24T11:58:28.739Z,3414.38
2019-03-24T11:59:28.721Z,3166.88
2019-03-24T12:00:28.716Z,4916.25
2019-03-24T12:01:38.031Z,2446.88
2019-03-24T12:02:29.710Z,5191.88
2019-03-24T12:03:28.691Z,4888.12
2019-03-24T12:04:28.679Z,1963.12
2019-03-24T12:05:28.663Z,2176.88
2019-03-24T12:06:28.654Z,2823.75
2019-03-24T12:07:28.669Z,2120.62
2019-03-24T12:08:28.652Z,3864.38
2019-03-24T12:09:28.624Z,5197.50
2019-03-24T12:10:28.610Z,3240.00
2019-03-24T12:11:28.602Z,3318.75
2019-03-24T12:12:28.605Z,2171.25
2019-03-24T12:13:28.579Z,3026.25
2019-03-24T12:14:28.600Z,2925.00
2019-03-24T12:15:28.565Z,3532.50
2019-03-24T12:16:28.614Z,2728.12
2019-03-24T12:17:28.554Z,1805.62
2019-03-24T12:18:28.543Z,2778.75
2019-03-24T12:19:28.518Z,3121.88
2019-03-24T12:20:28.510Z,3504.38
2019-03-24T12:21:28.499Z,3571.88
2019-03-24T12:22:28.512Z,3690.00
2019-03-24T12:23:28.479Z,1996.88
2019-03-24T12:24:28.493Z,2643.75
2019-03-24T12:25:28.461Z,3616.88
2019-03-24T12:26:28.471Z,2508.75
2019-03-24T12:27:28.455Z,2120.62
2019-03-24T12:28:28.425Z,2475.00
2019-03-24T12:29:28.443Z,2013.75
2019-03-24T12:30:28.417Z,1878.75
2019-03-24T12:31:28.407Z,1856.25
2019-03-24T12:32:28.395Z,1890.00
2019-03-24T12:33:28.379Z,1929.38
2019-03-24T12:34:28.367Z,2058.75
2019-03-24T12:35:28.350Z,1918.12
2019-03-24T12:36:28.342Z,2008.12
2019-03-24T12:37:28.345Z,1805.62
2019-03-24T12:38:28.325Z,1884.38